createdAt,value
2023-04-25T00:01:48.436Z,99195.22
2023-04-25T00:04:17.501Z,99190.84
2023-04-25T00:06:45.394Z,99189.31
2023-04-25T00:09:12.982Z,99190.25
2023-04-25T00:11:40.564Z,99188.69
2023-04-25T00:14:08.208Z,99194.94
2023-04-25T00:16:36.970Z,99205.38
2023-04-25T00:19:04.577Z,99197.09
2023-04-25T00:21:32.775Z,99196.75
2023-04-25T00:24:00.327Z,99202.56
2023-04-25T00:26:27.882Z,99202.19
2023-04-25T00:28:56.250Z,99209.69
2023-04-25T00:31:23.885Z,99202.97
2023-04-25T00:33:51.714Z,99196.34
2023-04-25T00:36:19.651Z,99196.75
2023-04-25T00:38:47.256Z,99196.50
2023-04-25T00:41:16.995Z,99199.66
2023-04-25T00:43:44.597Z,99195.06
2023-04-25T00:46:12.367Z,99192.16
2023-04-25T00:48:39.960Z,99194.47
2023-04-25T00:51:07.610Z,99194.25
2023-04-25T00:53:35.750Z,99184.25
2023-04-25T00:56:03.307Z,99186.66
2023-04-25T00:58:30.917Z,99197.00
2023-04-25T01:00:58.656Z,99197.75
2023-04-25T01:03:29.837Z,99189.66
2023-04-25T01:05:57.816Z,99196.66
2023-04-25T01:08:25.790Z,99195.56
2023-04-25T01:10:53.377Z,99191.22
2023-04-25T01:13:21.109Z,99196.41
2023-04-25T01:15:48.667Z,99191.97
2023-04-25T01:18:16.533Z,99198.09
2023-04-25T01:20:44.203Z,99197.97
2023-04-25T01:23:11.895Z,99190.03
2023-04-25T01:25:39.767Z,99193.41
2023-04-25T01:28:07.407Z,99190.63
2023-04-25T01:30:35.300Z,99193.13
2023-04-25T01:33:03.809Z,99192.31
2023-04-25T01:35:31.445Z,99186.91
2023-04-25T01:37:59.003Z,99196.66
2023-04-25T01:40:26.526Z,99194.25
2023-04-25T01:42:54.194Z,99193.50
2023-04-25T01:45:21.746Z,99188.34
2023-04-25T01:47:51.064Z,99197.97
2023-04-25T01:50:18.717Z,99198.94
2023-04-25T01:52:46.297Z,99201.69
2023-04-25T01:55:14.608Z,99209.75
2023-04-25T01:57:42.216Z,99211.94
2023-04-25T02:00:10.149Z,99210.84
2023-04-25T02:02:37.748Z,99208.78
2023-04-25T02:05:05.725Z,99218.03
2023-04-25T02:07:33.348Z,99217.44
2023-04-25T02:10:01.249Z,99225.72
2023-04-25T02:12:29.028Z,99232.34
2023-04-25T02:14:56.642Z,99235.44
2023-04-25T02:17:24.224Z,99234.09
2023-04-25T02:19:52.122Z,99233.72
2023-04-25T02:22:19.708Z,99237.31
2023-04-25T02:24:47.301Z,99228.75
2023-04-25T02:27:14.938Z,99235.16
2023-04-25T02:29:42.478Z,99232.63
2023-04-25T02:32:11.836Z,99230.22
2023-04-25T02:34:39.449Z,99231.16
2023-04-25T02:37:07.060Z,99228.63
2023-04-25T02:39:34.622Z,99226.81
2023-04-25T02:42:02.270Z,99229.59
2023-04-25T02:44:30.182Z,99233.06
2023-04-25T02:46:57.775Z,99239.06
2023-04-25T02:49:25.417Z,99238.25
2023-04-25T02:51:52.993Z,99242.59
2023-04-25T02:54:20.607Z,99245.34
2023-04-25T02:56:48.774Z,99241.00
2023-04-25T02:59:16.330Z,99240.19
2023-04-25T03:01:43.888Z,99241.00
2023-04-25T03:04:11.618Z,99244.50
2023-04-25T03:06:39.180Z,99236.56
2023-04-25T03:09:07.768Z,99244.38
2023-04-25T03:11:35.363Z,99240.78
2023-04-25T03:14:02.929Z,99244.25
2023-04-25T03:16:30.868Z,99241.63
2023-04-25T03:18:58.486Z,99247.88
2023-04-25T03:21:26.657Z,99243.44
2023-04-25T03:23:54.264Z,99247.88
2023-04-25T03:26:21.912Z,99246.91
2023-04-25T03:28:49.446Z,99241.72
2023-04-25T03:31:17.082Z,99243.53
2023-04-25T03:33:45.265Z,99246.09
2023-04-25T03:36:12.831Z,99254.84
2023-04-25T03:38:42.371Z,99254.84
2023-04-25T03:41:10.009Z,99259.41
2023-04-25T03:43:37.557Z,99254.13
2023-04-25T03:46:05.533Z,99259.41
2023-04-25T03:48:33.232Z,99265.53
2023-04-25T03:51:00.867Z,99265.53
2023-04-25T03:53:28.465Z,99274.31
2023-04-25T03:55:56.100Z,99268.31
2023-04-25T03:58:24.531Z,99273.59
2023-04-25T04:00:52.392Z,99270.19
2023-04-25T04:03:20.201Z,99269.47
2023-04-25T04:05:48.578Z,99274.88
2023-04-25T04:08:16.142Z,99280.16
2023-04-25T04:10:44.087Z,99272.22
2023-04-25T04:13:11.651Z,99277.66
2023-04-25T04:15:39.225Z,99284.72
2023-04-25T04:18:07.447Z,99281.03
2023-04-25T04:20:35.060Z,99280.06
2023-04-25T04:23:03.054Z,99284.28
2023-04-25T04:25:31.231Z,99282.34
2023-04-25T04:27:59.834Z,99277.94
2023-04-25T04:30:30.523Z,99279.59
2023-04-25T04:32:58.182Z,99280.47
2023-04-25T04:35:26.201Z,99283.94
2023-04-25T04:37:53.824Z,99293.69
2023-04-25T04:40:21.725Z,99288.25
2023-04-25T04:42:49.334Z,99298.63
2023-04-25T04:45:17.433Z,99309.94
2023-04-25T04:47:45.454Z,99310.66
2023-04-25T04:50:13.055Z,99317.78
2023-04-25T04:52:40.636Z,99317.25
2023-04-25T04:55:09.264Z,99319.97
2023-04-25T04:57:37.123Z,99319.88
2023-04-25T05:00:12.165Z,99313.59
2023-04-25T05:02:40.034Z,99326.41
2023-04-25T05:05:07.822Z,99323.25
2023-04-25T05:07:35.774Z,99334.88
2023-04-25T05:10:03.493Z,99338.47
2023-04-25T05:12:31.866Z,99345.56
2023-04-25T05:14:59.552Z,99348.19
2023-04-25T05:17:27.216Z,99345.56
2023-04-25T05:19:54.945Z,99348.09
2023-04-25T05:22:22.670Z,99349.78
2023-04-25T05:24:55.173Z,99357.59
2023-04-25T05:27:23.707Z,99352.09
2023-04-25T05:29:51.651Z,99353.56
2023-04-25T05:32:19.310Z,99360.22
2023-04-25T05:34:47.068Z,99352.81
2023-04-25T05:37:15.246Z,99358.94
2023-04-25T05:39:42.896Z,99372.03
2023-04-25T05:42:10.590Z,99371.09
2023-04-25T05:44:38.303Z,99373.53
2023-04-25T05:47:06.622Z,99376.66
2023-04-25T05:49:34.824Z,99374.53
2023-04-25T05:52:02.430Z,99381.28
2023-04-25T05:54:30.018Z,99388.28
2023-04-25T05:56:57.667Z,99389.00
2023-04-25T05:59:25.321Z,99388.91
2023-04-25T06:01:53.467Z,99393.13
2023-04-25T06:04:21.614Z,99392.06
2023-04-25T06:06:49.472Z,99389.31
2023-04-25T06:09:17.218Z,99395.13
2023-04-25T06:11:44.947Z,99400.91
2023-04-25T06:14:14.252Z,99393.47
2023-04-25T06:16:41.856Z,99399.78
2023-04-25T06:19:09.663Z,99402.88
2023-04-25T06:21:37.321Z,99409.56
2023-04-25T06:24:04.981Z,99412.13
2023-04-25T06:26:33.581Z,99406.25
2023-04-25T06:29:01.362Z,99412.03
2023-04-25T06:31:30.050Z,99407.97
2023-04-25T06:33:57.939Z,99411.13
2023-04-25T06:36:26.988Z,99418.47
2023-04-25T06:38:55.301Z,99410.91
2023-04-25T06:41:23.060Z,99412.09
2023-04-25T06:43:50.717Z,99417.69
2023-04-25T06:46:18.413Z,99420.19
2023-04-25T06:48:46.232Z,99409.25
2023-04-25T06:51:15.357Z,99414.78
2023-04-25T06:53:42.993Z,99411.22
2023-04-25T06:56:11.331Z,99416.97
2023-04-25T06:58:39.441Z,99420.97
2023-04-25T07:01:07.126Z,99423.28
2023-04-25T07:03:35.324Z,99427.63
2023-04-25T07:06:03.243Z,99413.50
2023-04-25T07:08:30.881Z,99425.69
2023-04-25T07:10:58.708Z,99429.66
2023-04-25T07:13:26.484Z,99424.97
2023-04-25T07:15:56.654Z,99419.06
2023-04-25T07:18:25.125Z,99419.31
2023-04-25T07:20:52.808Z,99424.72
2023-04-25T07:23:20.492Z,99432.44
2023-04-25T07:25:48.388Z,99434.13
2023-04-25T07:28:18.853Z,99434.31
2023-04-25T07:30:47.367Z,99436.22
2023-04-25T07:33:15.242Z,99433.28
2023-04-25T07:35:43.003Z,99435.88
2023-04-25T07:38:11.548Z,99434.84
2023-04-25T07:40:46.852Z,99442.38
2023-04-25T07:43:17.669Z,99432.63
2023-04-25T07:45:48.945Z,99439.38
2023-04-25T07:48:16.816Z,99446.13
2023-04-25T07:50:44.617Z,99445.75
2023-04-25T07:53:12.546Z,99445.75
2023-04-25T07:55:41.339Z,99453.00
2023-04-25T07:58:09.427Z,99460.94
2023-04-25T08:00:38.189Z,99457.53
2023-04-25T08:03:06.543Z,99460.97
2023-04-25T08:05:34.663Z,99465.81
2023-04-25T08:08:03.559Z,99470.53
2023-04-25T08:10:31.512Z,99470.09
2023-04-25T08:13:02.178Z,99470.34
2023-04-25T08:15:30.532Z,99480.25
2023-04-25T08:18:01.360Z,99480.38
2023-04-25T08:20:32.538Z,99484.38
2023-04-25T08:23:00.318Z,99484.31
2023-04-25T08:25:28.081Z,99484.97
2023-04-25T08:27:56.231Z,99496.28
2023-04-25T08:30:24.486Z,99492.69
2023-04-25T08:32:57.948Z,99503.19
2023-04-25T08:35:25.920Z,99508.97
2023-04-25T08:37:53.918Z,99509.94
2023-04-25T08:40:48.443Z,99510.31
2023-04-25T08:43:16.686Z,99518.56
2023-04-25T08:45:44.597Z,99517.72
2023-04-25T08:48:12.421Z,99526.88
2023-04-25T08:50:49.804Z,99530.19
2023-04-25T08:53:19.960Z,99532.84
2023-04-25T08:55:47.721Z,99531.78
2023-04-25T08:58:15.592Z,99537.53
2023-04-25T09:00:43.905Z,99533.66
2023-04-25T09:03:14.996Z,99549.47
2023-04-25T09:05:45.535Z,99544.94
2023-04-25T09:08:13.777Z,99554.44
2023-04-25T09:10:41.514Z,99565.53
2023-04-25T09:13:13.800Z,99561.84
2023-04-25T09:15:41.895Z,99564.00
2023-04-25T09:18:09.751Z,99566.19
2023-04-25T09:20:40.415Z,99558.00
2023-04-25T09:23:31.147Z,99551.38
2023-04-25T09:26:00.520Z,99559.13
2023-04-25T09:28:40.381Z,99555.75
2023-04-25T09:31:20.462Z,99556.44
2023-04-25T09:33:48.924Z,99574.16
2023-04-25T09:36:24.582Z,99570.50
2023-04-25T09:38:58.112Z,99577.56
2023-04-25T09:41:38.434Z,99580.38
2023-04-25T09:44:09.021Z,99588.38
2023-04-25T09:49:29.662Z,99591.97
2023-04-25T09:51:58.136Z,99595.03
2023-04-25T09:54:43.141Z,99589.94
2023-04-25T09:57:34.257Z,99595.44
2023-04-25T10:00:05.267Z,99597.50
2023-04-25T10:02:38.887Z,99603.91
2023-04-25T10:11:11.418Z,99614.56
2023-04-25T10:13:51.729Z,99619.94
2023-04-25T10:16:53.483Z,99616.16
2023-04-25T10:19:27.397Z,99624.66
2023-04-25T10:21:55.838Z,99631.66
2023-04-25T10:27:50.003Z,99634.81
2023-04-25T10:30:23.807Z,99633.34
2023-04-25T10:42:04.281Z,99620.19
2023-04-25T10:50:17.320Z,99591.09
2023-04-25T10:56:11.112Z,99597.91
2023-04-25T10:59:03.802Z,99590.50
2023-04-25T11:01:52.142Z,99599.16
2023-04-25T11:04:44.996Z,99614.69
2023-04-25T11:07:43.120Z,99621.63
2023-04-25T11:10:13.888Z,99630.66
2023-04-25T11:12:50.969Z,99621.72
2023-04-25T11:24:59.179Z,99637.72
2023-04-25T11:30:36.216Z,99648.41
2023-04-25T11:33:07.221Z,99650.81
2023-04-25T11:35:50.541Z,99661.41
2023-04-25T11:38:29.302Z,99655.94
2023-04-25T11:41:12.210Z,99659.41
2023-04-25T11:44:01.670Z,99670.31
2023-04-25T11:46:42.458Z,99670.53
2023-04-25T11:52:29.108Z,99670.47
2023-04-25T12:00:52.091Z,99674.94
2023-04-25T12:09:36.517Z,99686.34
2023-04-25T12:12:18.111Z,99686.06
2023-04-25T12:14:49.655Z,99691.97
2023-04-25T12:18:06.310Z,99688.63
2023-04-25T12:20:42.970Z,99678.41
2023-04-25T12:26:44.149Z,99685.44
2023-04-25T12:29:34.894Z,99676.78
2023-04-25T12:32:28.454Z,99661.78
2023-04-25T12:35:03.003Z,99652.56
2023-04-25T12:37:31.438Z,99649.47
2023-04-25T12:40:21.732Z,99651.91
2023-04-25T12:42:52.654Z,99642.31
2023-04-25T12:45:20.528Z,99651.47
2023-04-25T12:48:04.303Z,99653.16
2023-04-25T12:53:35.679Z,99653.28
2023-04-25T12:59:01.412Z,99654.44
2023-04-25T13:13:21.137Z,99677.13
2023-04-25T13:16:03.935Z,99678.06
2023-04-25T13:19:04.797Z,99684.22
2023-04-25T13:31:13.025Z,99675.09
2023-04-25T13:33:57.476Z,99687.03
2023-04-25T13:39:37.531Z,99691.63
2023-04-25T13:42:33.220Z,99701.44
2023-04-25T13:45:03.815Z,99690.41
2023-04-25T13:50:51.246Z,99687.13
2023-04-25T13:53:25.259Z,99686.31
2023-04-25T13:59:19.915Z,99686.66
2023-04-25T14:05:26.833Z,99687.66
2023-04-25T14:13:59.304Z,99700.88
2023-04-25T14:16:39.760Z,99702.00
2023-04-25T14:19:32.589Z,99698.59
2023-04-25T14:22:02.988Z,99702.91
2023-04-25T14:24:44.662Z,99718.94
2023-04-25T14:27:18.970Z,99733.59
2023-04-25T14:30:17.484Z,99723.44
2023-04-25T14:33:14.568Z,99731.72
2023-04-25T14:35:45.616Z,99728.28
2023-04-25T14:41:29.302Z,99719.91
2023-04-25T14:47:31.574Z,99695.03
2023-04-25T14:50:03.008Z,99688.00
2023-04-25T14:53:06.568Z,99690.63
2023-04-25T14:55:46.725Z,99680.63
2023-04-25T15:01:48.272Z,99689.75
2023-04-25T15:07:49.889Z,99695.50
2023-04-25T15:10:29.993Z,99691.38
2023-04-25T15:13:24.549Z,99695.25
2023-04-25T15:15:55.722Z,99697.75
2023-04-25T15:18:28.602Z,99705.44
2023-04-25T15:21:32.361Z,99716.97
2023-04-25T15:24:03.011Z,99722.97
2023-04-25T15:26:50.405Z,99727.34
2023-04-25T15:32:06.948Z,99744.28
2023-04-25T15:35:09.925Z,99756.03
2023-04-25T15:38:03.949Z,99758.13
2023-04-25T15:43:54.562Z,99766.44
2023-04-25T15:46:26.695Z,99764.47
2023-04-25T15:49:17.764Z,99776.53
2023-04-25T15:52:02.832Z,99767.41
2023-04-25T15:54:50.950Z,99768.97
2023-04-25T15:57:21.699Z,99770.09
2023-04-25T16:00:14.076Z,99764.03
2023-04-25T16:03:03.470Z,99770.34
2023-04-25T16:08:37.636Z,99764.97
2023-04-25T16:14:19.509Z,99765.22
2023-04-25T16:22:27.583Z,99742.09
2023-04-25T16:27:46.894Z,99745.09
2023-04-25T16:30:20.930Z,99746.97
2023-04-25T16:33:11.775Z,99754.47
2023-04-25T16:38:35.957Z,99768.00
2023-04-25T16:41:10.033Z,99767.84
2023-04-25T16:46:41.486Z,99770.78
2023-04-25T16:49:16.083Z,99778.88
2023-04-25T16:54:38.264Z,99778.97
2023-04-25T16:57:11.926Z,99779.72
2023-04-25T17:00:02.104Z,99778.63
2023-04-25T17:02:38.995Z,99781.88
2023-04-25T17:05:06.970Z,99783.03
2023-04-25T17:07:38.256Z,99791.22
2023-04-25T17:19:43.821Z,99799.63
2023-04-25T17:22:29.973Z,99802.19
2023-04-25T17:24:57.863Z,99804.25
2023-04-25T17:30:51.539Z,99810.94
2023-04-25T17:33:34.598Z,99817.72
2023-04-25T17:36:24.233Z,99823.66
2023-04-25T17:38:55.727Z,99814.47
2023-04-25T17:44:55.257Z,99824.47
2023-04-25T17:47:23.291Z,99820.22
2023-04-25T17:50:02.276Z,99819.78
2023-04-25T17:52:48.534Z,99818.31
2023-04-25T17:55:26.056Z,99817.81
2023-04-25T17:58:20.960Z,99807.53
2023-04-25T18:01:05.888Z,99826.41
2023-04-25T18:03:42.944Z,99823.38
2023-04-25T18:09:18.281Z,99834.59
2023-04-25T18:11:47.547Z,99838.59
2023-04-25T18:14:48.042Z,99847.75
2023-04-25T18:17:15.964Z,99845.44
2023-04-25T18:19:43.783Z,99855.47
2023-04-25T18:25:15.840Z,99858.59
2023-04-25T18:27:44.392Z,99859.53
2023-04-25T18:30:16.034Z,99870.31
2023-04-25T18:32:47.023Z,99863.16
2023-04-25T18:35:15.427Z,99859.44
2023-04-25T18:37:43.335Z,99879.63
2023-04-25T18:40:17.366Z,99876.09
2023-04-25T18:43:11.934Z,99885.75
2023-04-25T18:45:43.098Z,99879.88
2023-04-25T18:51:24.897Z,99896.13
2023-04-25T18:53:59.202Z,99908.78
2023-04-25T18:56:33.361Z,99909.03
2023-04-25T18:59:15.801Z,99910.97
2023-04-25T19:01:44.381Z,99922.03
2023-04-25T19:07:31.380Z,99922.56
2023-04-25T19:10:02.887Z,99927.91
2023-04-25T19:12:49.463Z,99930.50
2023-04-25T19:15:35.766Z,99934.88
2023-04-25T19:18:05.074Z,99937.56
2023-04-25T19:20:35.871Z,99944.41
2023-04-25T19:23:29.341Z,99944.09
2023-04-25T19:26:03.476Z,99949.91
2023-04-25T19:31:38.525Z,99954.25
2023-04-25T19:34:06.542Z,99957.13
2023-04-25T19:36:57.839Z,99958.91
2023-04-25T19:39:26.037Z,99950.00
2023-04-25T19:41:53.883Z,99953.69
2023-04-25T19:44:22.259Z,99952.13
2023-04-25T19:46:50.609Z,99956.81
2023-04-25T19:49:33.650Z,99958.19
2023-04-25T19:52:02.051Z,99963.81
2023-04-25T19:54:30.571Z,99963.25
2023-04-25T19:56:58.998Z,99962.72
2023-04-25T19:59:28.695Z,99969.19
2023-04-25T20:01:56.625Z,99975.63
2023-04-25T20:04:24.606Z,99978.50
2023-04-25T20:06:53.497Z,99976.25
2023-04-25T20:09:24.318Z,99982.19
2023-04-25T20:11:58.094Z,99988.84
2023-04-25T20:14:29.859Z,99987.53
2023-04-25T20:16:59.356Z,99994.28
2023-04-25T20:19:27.091Z,99986.84
2023-04-25T20:22:03.909Z,99987.25
2023-04-25T20:24:31.898Z,99990.22
2023-04-25T20:27:00.112Z,99994.19
2023-04-25T20:29:37.180Z,99996.28
2023-04-25T20:32:05.400Z,99997.53
2023-04-25T20:34:33.720Z,99993.56
2023-04-25T20:37:03.610Z,100003.59
2023-04-25T20:39:33.463Z,100001.25
2023-04-25T20:42:10.452Z,100003.53
2023-04-25T20:44:43.894Z,100008.38
2023-04-25T20:47:18.548Z,100006.19
2023-04-25T20:49:49.393Z,100010.16
2023-04-25T20:52:18.271Z,100011.41
2023-04-25T20:54:46.396Z,100006.47
2023-04-25T20:57:14.293Z,100006.69
2023-04-25T20:59:45.070Z,100006.22
2023-04-25T21:02:12.920Z,100006.38
2023-04-25T21:04:40.857Z,100004.03
2023-04-25T21:07:09.106Z,100008.84
2023-04-25T21:09:36.808Z,100008.19
2023-04-25T21:12:04.850Z,100015.53
2023-04-25T21:14:32.880Z,100013.25
2023-04-25T21:17:00.747Z,100014.41
2023-04-25T21:19:31.718Z,100011.16
2023-04-25T21:21:59.486Z,100015.91
2023-04-25T21:24:28.371Z,100018.78
2023-04-25T21:26:56.014Z,100019.91
2023-04-25T21:29:23.822Z,100019.22
2023-04-25T21:31:56.011Z,100016.00
2023-04-25T21:34:23.933Z,100016.25
2023-04-25T21:36:52.731Z,100027.09
2023-04-25T21:39:20.481Z,100024.72
2023-04-25T21:41:48.511Z,100031.97
2023-04-25T21:44:16.534Z,100030.63
2023-04-25T21:46:44.362Z,100030.91
2023-04-25T21:49:15.381Z,100030.28
2023-04-25T21:51:43.197Z,100028.88
2023-04-25T21:54:10.998Z,100030.91
2023-04-25T21:56:39.359Z,100032.03
2023-04-25T21:59:07.574Z,100038.41
2023-04-25T22:01:35.610Z,100040.38
2023-04-25T22:04:03.448Z,100031.97
2023-04-25T22:06:31.827Z,100039.13
2023-04-25T22:08:59.741Z,100044.66
2023-04-25T22:11:28.769Z,100049.16
2023-04-25T22:14:03.305Z,100048.47
2023-04-25T22:16:31.039Z,100053.91
2023-04-25T22:18:59.628Z,100054.94
2023-04-25T22:21:27.807Z,100055.94
2023-04-25T22:23:56.765Z,100048.13
2023-04-25T22:26:26.011Z,100052.63
2023-04-25T22:28:53.913Z,100052.72
2023-04-25T22:31:21.836Z,100056.31
2023-04-25T22:33:49.587Z,100052.03
2023-04-25T22:36:18.056Z,100065.25
2023-04-25T22:38:49.450Z,100063.53
2023-04-25T22:41:17.748Z,100068.81
2023-04-25T22:43:45.448Z,100068.88
2023-04-25T22:46:13.138Z,100071.53
2023-04-25T22:48:40.842Z,100075.84
2023-04-25T22:51:08.869Z,100075.03
2023-04-25T22:53:39.949Z,100071.44
2023-04-25T22:56:07.641Z,100080.19
2023-04-25T22:58:35.496Z,100086.34
2023-04-25T23:01:03.149Z,100084.72
2023-04-25T23:03:33.092Z,100083.09
2023-04-25T23:06:00.846Z,100084.09
2023-04-25T23:08:28.953Z,100085.09
2023-04-25T23:10:58.619Z,100088.88
2023-04-25T23:13:26.687Z,100091.69
2023-04-25T23:15:54.674Z,100097.09
2023-04-25T23:18:22.349Z,100098.09
2023-04-25T23:20:50.092Z,100095.63
2023-04-25T23:23:18.181Z,100096.66
2023-04-25T23:25:46.168Z,100090.69
2023-04-25T23:28:14.097Z,100098.66
2023-04-25T23:30:41.798Z,100102.41
2023-04-25T23:33:09.470Z,100101.72
2023-04-25T23:35:37.953Z,100105.28
2023-04-25T23:38:05.615Z,100101.72
2023-04-25T23:40:33.616Z,100101.78
2023-04-25T23:43:03.605Z,100104.53
2023-04-25T23:45:31.253Z,100099.41
2023-04-25T23:47:59.924Z,100102.09
2023-04-25T23:50:27.618Z,100096.94
2023-04-25T23:52:55.647Z,100103.91
2023-04-25T23:55:23.254Z,100102.19
2023-04-25T23:57:50.932Z,100102.28
